createdAt,value
2018-09-21T00:02:05.429Z,20.89
2018-09-21T00:04:40.515Z,20.97
2018-09-21T00:07:15.695Z,20.94
2018-09-21T00:09:50.812Z,20.90
2018-09-21T00:12:25.929Z,20.94
2018-09-21T00:15:01.125Z,20.95
2018-09-21T00:17:36.072Z,20.92
2018-09-21T00:20:11.266Z,20.92
2018-09-21T00:22:46.276Z,20.87
2018-09-21T00:25:21.447Z,20.84
2018-09-21T00:27:56.537Z,20.87
2018-09-21T00:30:31.632Z,20.93
2018-09-21T00:33:06.857Z,20.95
2018-09-21T00:35:41.849Z,20.91
2018-09-21T00:38:16.926Z,20.94
2018-09-21T00:40:52.148Z,20.89
2018-09-21T00:43:27.352Z,20.94
2018-09-21T00:46:02.428Z,20.92
2018-09-21T00:48:37.545Z,21.01
2018-09-21T00:51:12.639Z,21.01
2018-09-21T00:53:47.769Z,20.96
2018-09-21T00:56:22.883Z,20.97
2018-09-21T00:58:58.020Z,21.01
2018-09-21T01:01:33.143Z,20.92
2018-09-21T01:04:08.589Z,20.99
2018-09-21T01:06:43.592Z,21.04
2018-09-21T01:09:18.637Z,21.06
2018-09-21T01:11:53.758Z,21.05
2018-09-21T01:14:28.873Z,21.06
2018-09-21T01:17:04.034Z,21.12
2018-09-21T01:19:39.236Z,21.05
2018-09-21T01:22:14.360Z,20.98
2018-09-21T01:24:49.649Z,21.01
2018-09-21T01:27:24.737Z,21.04
2018-09-21T01:29:59.884Z,21.08
2018-09-21T01:32:35.024Z,21.08
2018-09-21T01:35:10.216Z,21.16
2018-09-21T01:37:45.317Z,21.16
2018-09-21T01:40:20.473Z,21.19
2018-09-21T01:42:55.663Z,21.17
2018-09-21T01:45:30.760Z,21.13
2018-09-21T01:48:06.086Z,21.15
2018-09-21T01:50:41.164Z,21.23
2018-09-21T01:53:16.364Z,21.21
2018-09-21T01:55:51.442Z,21.31
2018-09-21T01:58:26.689Z,21.27
2018-09-21T02:01:01.771Z,21.29
2018-09-21T02:03:36.900Z,21.29
2018-09-21T02:06:11.945Z,21.28
2018-09-21T02:08:47.134Z,21.26
2018-09-21T02:11:22.292Z,21.20
2018-09-21T02:13:57.452Z,21.21
2018-09-21T02:16:32.531Z,21.17
2018-09-21T02:19:07.510Z,21.19
2018-09-21T02:21:42.559Z,21.17
2018-09-21T02:24:17.729Z,21.14
2018-09-21T02:26:53.058Z,21.16
2018-09-21T02:29:28.239Z,21.07
2018-09-21T02:32:03.066Z,21.08
2018-09-21T02:34:38.276Z,21.07
2018-09-21T02:37:13.402Z,21.01
2018-09-21T02:39:48.504Z,20.88
2018-09-21T02:42:23.617Z,20.86
2018-09-21T02:44:58.812Z,20.89
2018-09-21T02:47:33.973Z,20.85
2018-09-21T02:50:09.044Z,20.80
2018-09-21T02:52:44.257Z,20.87
2018-09-21T02:55:19.359Z,20.84
2018-09-21T02:57:54.515Z,20.86
2018-09-21T03:00:29.603Z,20.81
2018-09-21T03:03:04.542Z,20.83
2018-09-21T03:05:39.803Z,20.88
2018-09-21T03:08:14.970Z,20.86
2018-09-21T03:10:50.006Z,20.91
2018-09-21T03:13:24.977Z,20.91
2018-09-21T03:16:00.079Z,20.90
2018-09-21T03:18:35.210Z,20.89
2018-09-21T03:21:10.353Z,20.87
2018-09-21T03:23:45.448Z,20.86
2018-09-21T03:26:20.540Z,20.85
2018-09-21T03:28:55.872Z,20.87
2018-09-21T03:31:30.896Z,20.78
2018-09-21T03:34:06.057Z,20.91
2018-09-21T03:36:41.166Z,20.82
2018-09-21T03:39:16.311Z,20.87
2018-09-21T03:41:51.336Z,20.91
2018-09-21T03:44:26.371Z,20.96
2018-09-21T03:47:01.482Z,20.97
2018-09-21T03:49:36.544Z,20.93
2018-09-21T03:52:11.732Z,20.82
2018-09-21T03:54:46.909Z,20.85
2018-09-21T03:57:21.997Z,20.89
2018-09-21T03:59:57.081Z,20.89
2018-09-21T04:02:32.184Z,20.85
2018-09-21T04:05:07.963Z,20.77
2018-09-21T04:07:43.029Z,20.79
2018-09-21T04:10:18.008Z,20.74
2018-09-21T04:12:52.968Z,20.75
2018-09-21T04:15:28.116Z,20.75
2018-09-21T04:18:03.211Z,20.75
2018-09-21T04:20:38.429Z,20.71
2018-09-21T04:23:13.616Z,20.67
2018-09-21T04:25:48.649Z,20.59
2018-09-21T04:28:23.705Z,20.52
2018-09-21T04:30:58.843Z,20.51
2018-09-21T04:33:33.777Z,20.52
2018-09-21T04:36:08.874Z,20.50
2018-09-21T04:38:44.080Z,20.53
2018-09-21T04:41:19.138Z,20.51
2018-09-21T04:43:54.317Z,20.48
2018-09-21T04:46:29.473Z,20.37
2018-09-21T04:49:04.553Z,20.39
2018-09-21T04:51:39.661Z,20.41
2018-09-21T04:54:14.827Z,20.42
2018-09-21T04:56:49.941Z,20.41
2018-09-21T04:59:25.170Z,20.41
2018-09-21T05:02:00.283Z,20.45
2018-09-21T05:04:35.380Z,20.55
2018-09-21T05:07:10.420Z,20.58
2018-09-21T05:09:45.604Z,20.64
2018-09-21T05:12:20.656Z,20.75
2018-09-21T05:14:55.811Z,20.76
2018-09-21T05:17:30.896Z,20.86
2018-09-21T05:20:06.168Z,20.84
2018-09-21T05:22:41.361Z,20.93
2018-09-21T05:25:16.552Z,20.90
2018-09-21T05:27:51.716Z,20.93
2018-09-21T05:30:26.822Z,20.89
2018-09-21T05:33:02.010Z,20.83
2018-09-21T05:35:36.946Z,20.80
2018-09-21T05:38:12.487Z,20.85
2018-09-21T05:40:47.520Z,20.93
2018-09-21T05:43:22.621Z,20.94
2018-09-21T05:45:57.697Z,20.97
2018-09-21T05:48:32.817Z,20.98
2018-09-21T05:51:08.036Z,20.90
2018-09-21T05:53:43.032Z,20.87
2018-09-21T05:56:18.151Z,20.84
2018-09-21T05:58:53.413Z,20.87
2018-09-21T06:01:28.541Z,20.88
2018-09-21T06:04:03.664Z,20.92
2018-09-21T06:06:38.845Z,20.87
2018-09-21T06:09:14.633Z,20.88
2018-09-21T06:11:49.807Z,20.95
2018-09-21T06:14:24.857Z,20.98
2018-09-21T06:16:59.948Z,21.08
2018-09-21T06:19:34.929Z,21.08
2018-09-21T06:22:10.160Z,21.15
2018-09-21T06:24:45.324Z,21.21
2018-09-21T06:27:20.492Z,21.30
2018-09-21T06:29:55.455Z,21.36
2018-09-21T06:32:30.632Z,21.44
2018-09-21T06:35:05.853Z,21.53
2018-09-21T06:37:40.870Z,21.51
2018-09-21T06:40:16.001Z,21.60
2018-09-21T06:42:51.145Z,21.72
2018-09-21T06:45:26.219Z,21.85
2018-09-21T06:48:01.420Z,21.92
2018-09-21T06:50:36.468Z,22.08
2018-09-21T06:53:11.613Z,22.11
2018-09-21T06:55:46.701Z,22.21
2018-09-21T06:58:21.769Z,22.26
2018-09-21T07:00:56.860Z,22.30
2018-09-21T07:03:31.861Z,22.39
2018-09-21T07:06:07.065Z,22.38
2018-09-21T07:08:42.201Z,22.50
2018-09-21T07:11:17.317Z,22.62
2018-09-21T07:13:52.622Z,22.59
2018-09-21T07:16:27.815Z,22.59
2018-09-21T07:19:02.749Z,22.72
2018-09-21T07:21:37.813Z,22.79
2018-09-21T07:24:12.699Z,22.84
2018-09-21T07:26:47.826Z,22.82
2018-09-21T07:29:22.929Z,22.92
2018-09-21T07:31:58.082Z,22.93
2018-09-21T07:34:33.177Z,22.96
2018-09-21T07:37:08.394Z,22.99
2018-09-21T07:39:43.565Z,23.18
2018-09-21T07:42:18.521Z,23.27
2018-09-21T07:44:53.564Z,23.25
2018-09-21T07:47:28.708Z,23.26
2018-09-21T07:50:03.804Z,23.30
2018-09-21T07:52:38.928Z,23.33
2018-09-21T07:55:14.037Z,23.43
2018-09-21T07:57:49.144Z,23.75
2018-09-21T08:00:24.212Z,23.76
2018-09-21T08:02:59.132Z,23.79
2018-09-21T08:05:35.264Z,23.74
2018-09-21T08:08:10.316Z,23.75
2018-09-21T08:10:45.428Z,23.79
2018-09-21T08:13:20.509Z,23.72
2018-09-21T08:15:55.602Z,23.65
2018-09-21T08:18:30.912Z,23.59
2018-09-21T08:21:06.053Z,23.49
2018-09-21T08:23:41.229Z,23.52
2018-09-21T08:26:16.393Z,23.56
2018-09-21T08:28:51.496Z,23.51
2018-09-21T08:31:26.682Z,23.65
2018-09-21T08:34:01.771Z,23.72
2018-09-21T08:36:36.808Z,23.82
2018-09-21T08:39:12.437Z,23.91
2018-09-21T08:41:47.477Z,23.98
2018-09-21T08:44:22.595Z,24.04
2018-09-21T08:46:57.710Z,24.03
2018-09-21T08:49:32.716Z,24.13
2018-09-21T08:52:07.732Z,24.21
2018-09-21T08:54:42.887Z,24.23
2018-09-21T08:57:18.021Z,24.22
2018-09-21T08:59:53.081Z,24.26
2018-09-21T09:02:28.182Z,24.37
2018-09-21T09:05:03.365Z,24.61
2018-09-21T09:07:38.380Z,24.82
2018-09-21T09:10:13.506Z,25.04
2018-09-21T09:12:48.832Z,25.14
2018-09-21T09:15:23.920Z,25.11
2018-09-21T09:17:59.071Z,25.14
2018-09-21T09:20:34.257Z,25.19
2018-09-21T09:23:09.436Z,25.22
2018-09-21T09:25:44.472Z,25.22
2018-09-21T09:28:19.548Z,25.13
2018-09-21T09:30:54.736Z,25.38
2018-09-21T09:33:29.838Z,25.60
2018-09-21T09:36:04.974Z,25.85
2018-09-21T09:38:40.101Z,25.91
2018-09-21T09:41:15.145Z,26.04
2018-09-21T09:43:50.310Z,26.24
2018-09-21T09:46:25.441Z,26.27
2018-09-21T09:49:00.528Z,26.06
2018-09-21T09:51:35.645Z,25.92
2018-09-21T09:54:10.741Z,25.86
2018-09-21T09:56:45.737Z,25.69
2018-09-21T09:59:20.825Z,25.55
2018-09-21T10:01:55.952Z,25.45
2018-09-21T10:04:31.017Z,25.46
2018-09-21T10:07:06.093Z,25.44
2018-09-21T10:09:41.136Z,25.48
2018-09-21T10:12:16.142Z,25.49
2018-09-21T10:14:51.274Z,25.45
2018-09-21T10:17:26.412Z,25.37
2018-09-21T10:20:01.606Z,25.42
2018-09-21T10:22:36.814Z,25.45
2018-09-21T10:25:12.005Z,25.49
2018-09-21T10:27:47.181Z,25.37
2018-09-21T10:30:22.179Z,25.34
2018-09-21T10:32:57.325Z,25.57
2018-09-21T10:35:32.544Z,25.73
2018-09-21T10:38:07.556Z,25.83
2018-09-21T10:40:42.582Z,25.81
2018-09-21T10:43:17.712Z,25.74
2018-09-21T10:45:52.797Z,25.85
2018-09-21T10:48:27.900Z,25.85
2018-09-21T10:51:03.076Z,25.75
2018-09-21T10:53:38.163Z,25.71
2018-09-21T10:56:13.156Z,25.84
2018-09-21T10:58:48.316Z,25.82
2018-09-21T11:01:23.451Z,25.66
2018-09-21T11:03:58.601Z,25.61
2018-09-21T11:06:33.624Z,25.64
2018-09-21T11:09:10.546Z,25.65
2018-09-21T11:11:45.608Z,25.65
2018-09-21T11:14:20.829Z,25.48
2018-09-21T11:16:55.921Z,25.36
2018-09-21T11:19:31.180Z,25.18
2018-09-21T11:22:06.509Z,25.01
2018-09-21T11:24:41.557Z,24.67
2018-09-21T11:27:16.670Z,24.28
2018-09-21T11:29:51.745Z,23.79
2018-09-21T11:32:26.726Z,23.49
2018-09-21T11:35:01.801Z,23.05
2018-09-21T11:37:36.714Z,22.37
2018-09-21T11:40:11.944Z,21.78
2018-09-21T11:42:46.912Z,21.50
2018-09-21T11:45:22.002Z,21.22
2018-09-21T11:47:56.901Z,21.06
2018-09-21T11:50:31.940Z,20.48
2018-09-21T11:53:07.653Z,19.75
2018-09-21T11:55:42.805Z,19.08
2018-09-21T11:58:18.069Z,18.79
2018-09-21T12:00:53.096Z,18.08
2018-09-21T12:03:28.268Z,17.77
2018-09-21T12:06:05.965Z,17.66
2018-09-21T12:08:41.046Z,17.37
2018-09-21T12:11:15.996Z,17.24
2018-09-21T12:13:50.930Z,17.11
2018-09-21T12:16:26.032Z,17.21
2018-09-21T12:19:01.184Z,17.02
2018-09-21T12:21:36.273Z,16.84
2018-09-21T12:24:11.400Z,16.61
2018-09-21T12:26:46.508Z,16.65
2018-09-21T12:29:21.548Z,16.63
2018-09-21T12:31:56.595Z,16.58
2018-09-21T12:34:31.572Z,16.67
2018-09-21T12:37:06.465Z,16.70
2018-09-21T12:39:41.524Z,16.71
2018-09-21T12:42:16.705Z,16.76
2018-09-21T12:44:51.825Z,16.78
2018-09-21T12:47:26.893Z,16.67
2018-09-21T12:50:02.066Z,16.76
2018-09-21T12:52:37.220Z,16.72
2018-09-21T12:55:12.311Z,16.75
2018-09-21T12:57:47.243Z,16.68
2018-09-21T13:00:22.361Z,16.64
2018-09-21T13:02:57.342Z,16.62
2018-09-21T13:05:32.445Z,16.43
2018-09-21T13:08:07.498Z,16.37
2018-09-21T13:10:42.580Z,16.39
2018-09-21T13:13:17.716Z,16.39
2018-09-21T13:15:53.233Z,16.24
2018-09-21T13:18:28.387Z,16.21
2018-09-21T13:21:03.537Z,16.21
2018-09-21T13:23:38.843Z,16.23
2018-09-21T13:26:13.917Z,16.19
2018-09-21T13:28:48.980Z,16.33
2018-09-21T13:31:24.044Z,16.23
2018-09-21T13:33:59.168Z,16.26
2018-09-21T13:36:34.312Z,16.33
2018-09-21T13:39:11.520Z,16.24
2018-09-21T13:41:46.598Z,16.29
2018-09-21T13:44:21.795Z,16.39
2018-09-21T13:46:56.885Z,16.37
2018-09-21T13:49:31.972Z,16.50
2018-09-21T13:52:07.120Z,16.46
2018-09-21T13:54:42.265Z,16.37
2018-09-21T13:57:17.328Z,16.49
2018-09-21T13:59:52.333Z,16.51
2018-09-21T14:02:27.424Z,16.32
2018-09-21T14:05:02.552Z,16.40
2018-09-21T14:07:37.628Z,16.41
2018-09-21T14:10:13.105Z,16.21
2018-09-21T14:12:48.141Z,16.02
2018-09-21T14:15:23.220Z,16.04
2018-09-21T14:17:58.383Z,16.06
2018-09-21T14:20:33.444Z,15.99
2018-09-21T14:23:08.549Z,15.84
2018-09-21T14:25:43.857Z,15.87
2018-09-21T14:28:18.975Z,15.76
2018-09-21T14:30:53.860Z,15.95
2018-09-21T14:33:29.031Z,15.91
2018-09-21T14:36:04.148Z,15.99
2018-09-21T14:38:39.180Z,15.99
2018-09-21T14:41:14.233Z,16.05
2018-09-21T14:43:49.417Z,16.13
2018-09-21T14:46:24.340Z,16.17
2018-09-21T14:48:59.257Z,16.24
2018-09-21T14:51:34.340Z,16.23
2018-09-21T14:54:09.516Z,16.08
2018-09-21T14:56:44.560Z,16.03
2018-09-21T14:59:19.624Z,15.96
2018-09-21T15:01:54.714Z,15.92
2018-09-21T15:04:29.759Z,15.99
2018-09-21T15:07:04.900Z,16.09
2018-09-21T15:09:39.868Z,16.12
2018-09-21T15:12:15.071Z,16.20
2018-09-21T15:14:50.344Z,16.19
2018-09-21T15:17:25.316Z,16.23
2018-09-21T15:20:00.432Z,16.33
2018-09-21T15:22:35.567Z,16.39
2018-09-21T15:25:10.657Z,16.24
2018-09-21T15:27:45.612Z,16.30
2018-09-21T15:30:20.777Z,16.34
2018-09-21T15:32:55.854Z,16.40
2018-09-21T15:35:30.779Z,16.28
2018-09-21T15:38:05.852Z,16.29
2018-09-21T15:40:40.797Z,16.27
2018-09-21T15:43:16.004Z,16.21
2018-09-21T15:45:50.936Z,16.24
2018-09-21T15:48:25.978Z,16.16
2018-09-21T15:51:01.056Z,16.21
2018-09-21T15:53:36.275Z,16.20
2018-09-21T15:56:11.433Z,16.28
2018-09-21T15:58:46.649Z,16.19
2018-09-21T16:01:21.660Z,16.25
2018-09-21T16:03:56.719Z,16.18
2018-09-21T16:06:34.708Z,16.13
2018-09-21T16:09:09.907Z,16.17
2018-09-21T16:11:44.782Z,16.13
2018-09-21T16:14:19.988Z,16.04
2018-09-21T16:16:55.256Z,16.02
2018-09-21T16:19:30.278Z,16.03
2018-09-21T16:22:05.396Z,16.02
2018-09-21T16:24:40.497Z,16.10
2018-09-21T16:27:15.468Z,16.14
2018-09-21T16:29:50.571Z,16.20
2018-09-21T16:32:25.617Z,16.17
2018-09-21T16:35:00.705Z,16.24
2018-09-21T16:37:35.835Z,16.19
2018-09-21T16:40:10.928Z,16.18
2018-09-21T16:42:45.956Z,16.27
2018-09-21T16:45:20.841Z,16.36
2018-09-21T16:47:55.964Z,16.25
2018-09-21T16:50:30.972Z,16.25
2018-09-21T16:53:05.937Z,16.19
2018-09-21T16:55:41.102Z,16.03
2018-09-21T16:58:16.264Z,15.98
2018-09-21T17:00:51.656Z,15.97
2018-09-21T17:03:26.833Z,15.90
2018-09-21T17:06:01.716Z,15.88
2018-09-21T17:08:36.817Z,15.88
2018-09-21T17:11:11.949Z,15.89
2018-09-21T17:13:47.013Z,15.81
2018-09-21T17:16:22.013Z,15.72
2018-09-21T17:18:57.008Z,15.60
2018-09-21T17:21:32.196Z,15.61
2018-09-21T17:24:07.254Z,15.59
2018-09-21T17:26:42.424Z,15.57
2018-09-21T17:29:17.524Z,15.51
2018-09-21T17:31:52.622Z,15.51
2018-09-21T17:34:27.812Z,15.46
2018-09-21T17:37:02.955Z,15.46
2018-09-21T17:39:38.108Z,15.26
2018-09-21T17:42:13.205Z,15.36
2018-09-21T17:44:48.397Z,15.32
2018-09-21T17:47:23.449Z,15.22
2018-09-21T17:49:58.601Z,15.02
2018-09-21T17:52:33.764Z,14.84
2018-09-21T17:55:08.872Z,14.95
2018-09-21T17:57:44.281Z,15.10
2018-09-21T18:00:19.306Z,15.09
2018-09-21T18:02:54.369Z,15.03
2018-09-21T18:05:29.524Z,14.96
2018-09-21T18:08:04.676Z,15.04
2018-09-21T18:10:39.709Z,15.11
2018-09-21T18:13:14.824Z,15.00
2018-09-21T18:15:50.053Z,15.00
2018-09-21T18:18:25.076Z,14.95
2018-09-21T18:21:00.149Z,14.88
2018-09-21T18:23:35.256Z,14.85
2018-09-21T18:26:10.393Z,14.90
2018-09-21T18:28:45.556Z,14.83
2018-09-21T18:31:20.613Z,14.87
2018-09-21T18:33:56.041Z,14.79
2018-09-21T18:36:31.149Z,14.81
2018-09-21T18:39:07.445Z,14.81
2018-09-21T18:41:42.485Z,14.75
2018-09-21T18:44:17.573Z,14.74
2018-09-21T18:46:52.736Z,14.74
2018-09-21T18:49:27.768Z,14.60
2018-09-21T18:52:03.016Z,14.63
2018-09-21T18:54:38.105Z,14.61
2018-09-21T18:57:13.252Z,14.58
2018-09-21T18:59:48.144Z,14.64
2018-09-21T19:02:23.152Z,14.53
2018-09-21T19:04:58.093Z,14.51
2018-09-21T19:07:33.749Z,14.52
2018-09-21T19:10:08.932Z,14.45
2018-09-21T19:12:44.004Z,14.42
2018-09-21T19:15:19.116Z,14.48
2018-09-21T19:17:53.975Z,14.53
2018-09-21T19:20:29.065Z,14.52
2018-09-21T19:23:04.156Z,14.51
2018-09-21T19:25:39.301Z,14.42
2018-09-21T19:28:14.410Z,14.50
2018-09-21T19:30:49.544Z,14.42
2018-09-21T19:33:24.592Z,14.37
2018-09-21T19:35:59.688Z,14.40
2018-09-21T19:38:34.729Z,14.27
2018-09-21T19:41:09.715Z,14.31
2018-09-21T19:43:44.905Z,14.25
2018-09-21T19:46:19.955Z,14.24
2018-09-21T19:48:55.105Z,14.22
2018-09-21T19:51:30.196Z,14.15
2018-09-21T19:54:05.267Z,14.07
2018-09-21T19:56:40.383Z,14.02
2018-09-21T19:59:15.665Z,13.99
2018-09-21T20:01:50.668Z,13.88
2018-09-21T20:04:25.784Z,13.85
2018-09-21T20:07:00.820Z,13.85
2018-09-21T20:09:35.928Z,13.90
2018-09-21T20:12:11.102Z,13.80
2018-09-21T20:14:46.238Z,13.71
2018-09-21T20:17:21.325Z,13.61
2018-09-21T20:32:45.793Z,13.88
2018-09-21T20:35:20.759Z,13.91
2018-09-21T20:37:55.880Z,13.92
2018-09-21T20:40:30.880Z,14.03
2018-09-21T20:43:05.981Z,13.99
2018-09-21T20:45:41.019Z,14.00
2018-09-21T20:48:16.107Z,14.09
2018-09-21T20:50:51.451Z,14.13
2018-09-21T20:53:26.585Z,14.09
2018-09-21T20:56:01.612Z,14.12
2018-09-21T20:58:36.708Z,14.21
2018-09-21T21:01:11.707Z,14.24
2018-09-21T21:03:46.821Z,14.25
2018-09-21T21:06:21.909Z,14.24
2018-09-21T21:08:57.016Z,14.27
2018-09-21T21:11:32.153Z,14.28
2018-09-21T21:14:07.340Z,14.27
2018-09-21T21:16:42.418Z,14.25
2018-09-21T21:19:17.577Z,14.19
2018-09-21T21:21:52.604Z,14.16
2018-09-21T21:24:27.760Z,14.17
2018-09-21T21:27:02.907Z,14.02
2018-09-21T21:29:38.108Z,14.09
2018-09-21T21:32:13.281Z,13.98
2018-09-21T21:34:48.344Z,13.93
2018-09-21T21:37:23.217Z,13.92
2018-09-21T21:39:58.360Z,13.88
2018-09-21T21:42:33.452Z,13.70
2018-09-21T21:45:08.578Z,13.64
2018-09-21T21:47:43.682Z,13.56
2018-09-21T21:50:18.741Z,13.44
2018-09-21T21:52:53.884Z,13.42
2018-09-21T21:55:28.796Z,13.47
2018-09-21T21:58:03.872Z,13.38
2018-09-21T22:00:43.968Z,13.40
2018-09-21T22:03:18.952Z,13.37
2018-09-21T22:05:53.955Z,13.35
2018-09-21T22:08:29.031Z,13.32
2018-09-21T22:11:08.288Z,13.33
2018-09-21T22:13:48.448Z,13.34
2018-09-21T22:16:23.488Z,13.20
2018-09-21T22:18:58.533Z,13.05
2018-09-21T22:21:34.052Z,12.95
2018-09-21T22:24:09.075Z,12.90
2018-09-21T22:26:44.235Z,12.79
2018-09-21T22:29:19.373Z,12.72
2018-09-21T22:31:54.443Z,12.65
2018-09-21T22:34:29.511Z,12.63
2018-09-21T22:37:04.615Z,12.58
2018-09-21T22:39:39.789Z,12.61
2018-09-21T22:42:14.840Z,12.59
2018-09-21T22:44:49.931Z,12.56
2018-09-21T22:47:24.843Z,12.52
2018-09-21T22:49:59.808Z,12.46
2018-09-21T22:52:34.988Z,12.40
2018-09-21T22:55:10.168Z,12.40
2018-09-21T22:57:45.264Z,12.36
2018-09-21T23:00:20.333Z,12.39
2018-09-21T23:02:55.436Z,12.48
2018-09-21T23:05:30.620Z,12.46
2018-09-21T23:08:05.822Z,12.40
2018-09-21T23:10:40.914Z,12.18
2018-09-21T23:13:15.969Z,12.20
2018-09-21T23:15:51.104Z,12.26
2018-09-21T23:18:26.252Z,12.22
2018-09-21T23:21:01.333Z,12.19
2018-09-21T23:23:36.432Z,12.30
2018-09-21T23:26:11.585Z,12.31
2018-09-21T23:28:46.687Z,12.25
2018-09-21T23:31:21.754Z,12.22
2018-09-21T23:33:56.853Z,12.26
2018-09-21T23:36:32.032Z,12.25
2018-09-21T23:39:09.072Z,12.31
2018-09-21T23:41:44.140Z,12.36
2018-09-21T23:44:19.229Z,12.45
2018-09-21T23:46:54.313Z,12.44
2018-09-21T23:49:29.456Z,12.56
2018-09-21T23:52:04.740Z,12.57
2018-09-21T23:54:39.900Z,12.39
2018-09-21T23:57:15.052Z,12.39
2018-09-21T23:59:50.128Z,12.41
